createdAt,value
2022-09-27T04:00:48.976Z,20.37
2022-09-27T04:03:51.754Z,16.60
2022-09-27T04:06:54.470Z,21.05
2022-09-27T04:09:57.690Z,20.65
2022-09-27T04:13:00.467Z,18.45
2022-09-27T04:16:03.485Z,19.83
2022-09-27T04:19:07.582Z,20.52
2022-09-27T04:22:15.942Z,20.30
2022-09-27T04:25:19.797Z,18.40
2022-09-27T04:28:22.654Z,18.25
2022-09-27T04:31:25.026Z,20.92
2022-09-27T04:34:47.547Z,19.87
2022-09-27T04:37:49.727Z,19.92
2022-09-27T04:40:52.159Z,17.45
2022-09-27T04:44:00.227Z,18.48
2022-09-27T04:47:02.568Z,19.15
2022-09-27T04:50:05.049Z,17.27
2022-09-27T04:53:07.396Z,23.48
2022-09-27T04:56:10.063Z,28.90
2022-09-27T04:59:12.882Z,36.30
2022-09-27T05:02:15.428Z,34.05
2022-09-27T05:05:18.553Z,42.05
2022-09-27T05:08:21.083Z,45.20
2022-09-27T05:11:28.478Z,43.70
2022-09-27T05:14:39.944Z,43.87
2022-09-27T05:17:42.467Z,41.17
2022-09-27T05:20:53.341Z,65.50
2022-09-27T05:23:56.273Z,55.83
2022-09-27T05:26:58.606Z,45.60
2022-09-27T05:30:01.924Z,43.97
2022-09-27T05:33:06.547Z,38.72
2022-09-27T05:36:12.083Z,37.13
2022-09-27T05:39:16.642Z,31.73
2022-09-27T05:42:19.581Z,34.33
2022-09-27T05:45:23.401Z,32.65
2022-09-27T05:48:26.292Z,36.33
2022-09-27T05:51:32.238Z,43.80
2022-09-27T05:54:35.734Z,41.55
2022-09-27T05:57:39.433Z,40.83
2022-09-27T06:00:43.434Z,39.92
2022-09-27T06:03:47.996Z,39.40
2022-09-27T06:06:50.765Z,40.63
2022-09-27T06:09:53.235Z,42.30
2022-09-27T06:13:03.665Z,42.33
2022-09-27T06:16:09.842Z,51.50
2022-09-27T06:19:13.010Z,64.60
2022-09-27T06:22:15.690Z,47.25
2022-09-27T06:25:18.534Z,45.00
2022-09-27T06:28:25.572Z,39.83
2022-09-27T06:31:30.595Z,45.40
2022-09-27T06:34:33.946Z,39.78
2022-09-27T06:37:35.982Z,37.88
2022-09-27T06:40:38.352Z,35.88
2022-09-27T06:43:40.672Z,36.15
2022-09-27T06:46:43.494Z,33.63
2022-09-27T06:49:47.504Z,39.28
2022-09-27T06:52:50.716Z,38.40
2022-09-27T06:55:55.653Z,39.40
2022-09-27T06:59:16.700Z,37.63
2022-09-27T07:02:27.876Z,38.28
2022-09-27T07:05:31.113Z,41.13
2022-09-27T07:08:35.727Z,43.63
2022-09-27T07:11:38.162Z,34.22
2022-09-27T07:14:40.231Z,33.33
2022-09-27T07:17:46.132Z,48.15
2022-09-27T07:20:48.196Z,28.65
2022-09-27T07:23:51.040Z,33.35
2022-09-27T07:26:53.279Z,30.17
2022-09-27T07:29:55.894Z,26.48
2022-09-27T07:33:00.908Z,26.12
2022-09-27T07:36:08.292Z,28.00
2022-09-27T07:39:11.071Z,25.40
2022-09-27T07:42:15.703Z,30.85
2022-09-27T07:45:18.469Z,24.35
2022-09-27T07:48:21.999Z,22.42
2022-09-27T07:51:24.186Z,24.80
2022-09-27T07:54:26.617Z,25.80
2022-09-27T07:57:30.089Z,23.25
2022-09-27T08:00:32.909Z,23.50
2022-09-27T08:03:36.100Z,52.40
2022-09-27T08:06:38.558Z,23.77
2022-09-27T08:09:41.124Z,32.92
2022-09-27T08:12:43.703Z,25.95
2022-09-27T08:15:46.262Z,26.65
2022-09-27T08:18:48.501Z,24.50
2022-09-27T08:21:58.720Z,28.15
2022-09-27T08:25:04.101Z,28.02
2022-09-27T08:28:06.561Z,35.88
2022-09-27T08:31:08.758Z,31.80
2022-09-27T08:34:12.322Z,24.45
2022-09-27T08:37:14.757Z,23.27
2022-09-27T08:40:17.718Z,26.65
2022-09-27T08:43:32.933Z,33.50
2022-09-27T08:47:00.635Z,24.65
2022-09-27T08:50:09.001Z,144.05
2022-09-27T08:53:14.026Z,34.55
2022-09-27T08:56:21.136Z,97.30
2022-09-27T08:59:28.586Z,44.88
2022-09-27T09:02:31.146Z,32.42
2022-09-27T09:05:35.599Z,25.83
2022-09-27T09:09:19.885Z,26.90
2022-09-27T09:12:48.610Z,27.85
2022-09-27T09:16:15.930Z,28.17
2022-09-27T09:19:26.673Z,29.50
2022-09-27T09:22:43.153Z,33.40
2022-09-27T09:25:51.841Z,29.33
2022-09-27T09:29:07.768Z,25.67
2022-09-27T09:32:28.693Z,23.27
2022-09-27T09:35:41.489Z,23.17
2022-09-27T09:38:56.011Z,36.55
2022-09-27T09:42:13.449Z,46.78
2022-09-27T09:45:22.767Z,31.75
2022-09-27T09:48:43.358Z,36.40
2022-09-27T09:51:52.905Z,111.00
2022-09-27T09:55:03.553Z,63.30
2022-09-27T09:58:33.409Z,54.38
2022-09-27T10:01:44.455Z,38.90
2022-09-27T10:04:46.814Z,38.15
2022-09-27T10:07:51.338Z,25.70
2022-09-27T10:10:53.863Z,24.20
2022-09-27T10:13:58.342Z,26.27
2022-09-27T10:17:04.079Z,24.17
2022-09-27T10:20:07.427Z,23.90
2022-09-27T10:23:15.216Z,26.37
2022-09-27T10:26:19.866Z,25.40
2022-09-27T10:29:37.364Z,24.55
2022-09-27T10:32:42.183Z,24.15
2022-09-27T10:35:49.572Z,24.55
2022-09-27T10:38:54.720Z,22.98
2022-09-27T10:41:57.833Z,24.35
2022-09-27T10:45:26.838Z,22.98
2022-09-27T10:48:29.316Z,24.98
2022-09-27T10:51:31.905Z,23.10
2022-09-27T10:54:37.488Z,22.62
2022-09-27T10:57:44.308Z,23.85
2022-09-27T11:01:03.607Z,23.30
2022-09-27T11:04:20.495Z,22.33
2022-09-27T11:07:24.119Z,20.88
2022-09-27T11:10:36.296Z,24.25
2022-09-27T11:13:40.933Z,22.92
2022-09-27T11:16:58.549Z,21.67
2022-09-27T11:20:25.836Z,20.62
2022-09-27T11:23:48.941Z,24.92
2022-09-27T11:27:26.927Z,24.15
2022-09-27T11:30:42.386Z,20.85
2022-09-27T11:34:12.018Z,21.05
2022-09-27T11:37:20.594Z,19.45
2022-09-27T11:40:55.261Z,20.02
2022-09-27T11:44:09.800Z,22.23
2022-09-27T11:47:30.277Z,20.77
2022-09-27T11:50:59.904Z,19.83
2022-09-27T11:54:09.341Z,20.83
2022-09-27T11:57:26.997Z,21.23
2022-09-27T12:01:11.290Z,20.67
2022-09-27T12:04:48.142Z,23.98
2022-09-27T12:08:00.516Z,31.98
2022-09-27T12:11:15.030Z,25.25
2022-09-27T12:14:26.930Z,26.95
2022-09-27T12:17:35.929Z,16.45
2022-09-27T12:20:41.033Z,19.40
2022-09-27T12:23:49.448Z,17.15
2022-09-27T12:26:57.449Z,17.77
2022-09-27T12:30:00.954Z,16.62
2022-09-27T12:34:04.780Z,18.60
2022-09-27T12:37:21.915Z,18.73
2022-09-27T12:40:38.786Z,21.52
2022-09-27T12:43:49.009Z,32.17
2022-09-27T12:47:17.586Z,31.15
2022-09-27T12:50:46.128Z,22.75
2022-09-27T12:53:56.179Z,17.70
2022-09-27T12:57:18.642Z,19.10
2022-09-27T13:00:27.696Z,15.68
2022-09-27T13:03:32.776Z,14.75
2022-09-27T13:06:50.750Z,15.93
2022-09-27T13:10:24.781Z,18.87
2022-09-27T13:13:27.724Z,13.45
2022-09-27T13:16:30.187Z,14.57
2022-09-27T13:19:36.810Z,13.40
2022-09-27T13:22:40.254Z,14.07
2022-09-27T13:25:56.233Z,11.93
2022-09-27T13:29:03.132Z,11.57
2022-09-27T13:32:16.302Z,12.82
2022-09-27T13:35:25.542Z,33.85
2022-09-27T13:38:28.704Z,22.90
2022-09-27T13:41:46.673Z,31.48
2022-09-27T13:45:17.477Z,23.10
2022-09-27T13:48:25.418Z,9.88
2022-09-27T13:51:34.183Z,13.05
2022-09-27T13:54:41.649Z,10.02
2022-09-27T13:58:00.221Z,9.52
2022-09-27T14:01:16.098Z,9.65
2022-09-27T14:07:42.095Z,13.60
2022-09-27T14:10:45.935Z,11.48
2022-09-27T14:13:49.792Z,6.60
2022-09-27T14:16:54.253Z,9.55
2022-09-27T14:19:57.338Z,9.73
2022-09-27T14:23:01.178Z,4.53
2022-09-27T14:26:03.932Z,6.90
2022-09-27T14:29:19.419Z,4.70
2022-09-27T14:32:31.538Z,3.17
2022-09-27T14:35:53.358Z,1.92
2022-09-27T14:38:58.729Z,2.28
2022-09-27T14:42:04.607Z,1.73
2022-09-27T14:45:20.478Z,3.47
2022-09-27T14:48:28.089Z,2.85
2022-09-27T14:51:31.891Z,4.05
2022-09-27T14:54:34.206Z,2.35
2022-09-27T14:57:37.085Z,6.43
2022-09-27T15:00:41.347Z,4.43
2022-09-27T15:03:45.511Z,2.35
2022-09-27T15:06:49.580Z,3.58
2022-09-27T15:09:51.991Z,1.10
2022-09-27T15:12:59.760Z,1.50
2022-09-27T15:16:17.225Z,2.25
2022-09-27T15:19:29.498Z,3.40
2022-09-27T15:22:49.613Z,0.80
2022-09-27T15:26:16.345Z,2.00
2022-09-27T15:29:23.882Z,2.75
2022-09-27T15:32:28.929Z,1.42
2022-09-27T15:35:34.793Z,0.68
